Salem, OR (97303)

12:53 PM PST on February 06, 2016 (GMT -0800)
Country Glen | | Change Station
CLOSE
Current Station
Personal Weather Station
Location: Keizer, OR
Elevation: 134 ft
Nearby Weather Stations

Elev 134 ft 45.02 °N, 123.02 °W | Updated 16 seconds ago

Partly Cloudy
Partly Cloudy
47.8 °F
Feels Like 48 °F
N
0.8
Wind Variable Wind from North
Gusts 2.3 mph

Today
High -- | Low -- °F
--% Chance of Precip.
Yesterday
High -- | Low -- °F
Precip. -- in
Pressure 30.48 in
Visibility 10.0 miles
Clouds Few 600 ft
Windchill 48 °F
Dew Point 45 °F
Humidity 90%
Rainfall 0.00 in
Snow Depth Not available.
7:26 AM 5:26 PM
Waning Crescent, 4% visible
METAR KSLE 061956Z 36004KT 10SM FEW006 09/06 A3048 RMK AO2 SLP322 T00890061 $
Pressure 30.48 in
Visibility 10.0 miles
Clouds Few 600 ft
Windchill 48 °F
Dew Point 45 °F
Humidity 90%
Rainfall 0.00 in
Snow Depth Not available.
7:26 AM 5:26 PM
Waning Crescent, 4% visible
METAR KSLE 061956Z 36004KT 10SM FEW006 09/06 A3048 RMK AO2 SLP322 T00890061 $

10-Day Weather Forecast

Almanac

Astronomy

Feb. 06, 2016 Rise Set
Actual Time
Civil Twilight
Nautical Twilight
Astronomical Twilight
Moon
Length of Visible Light
Length of Day
Tomorrow will be .
, % of the Moon is Illuminated

Today's Extremes

State Highs State Lows

Community

WunderPhotos

Upload Photos

1,891,046 photos uploaded!

WunderBlog® & News

Nearby

Air Quality

  Air Quality AQ Index Pollutant
Not available.

Snow Depth

Station Depth Elevation

Earthquake Activity

City Distance Mag. Time & Date
Minimum magnitude displayed is 2.5.

Coastal Water Temperatures

Place Temperature

Stations

Nearby Weather Stations

Station Location Temp. Windchill Dew Point Humidity Wind Precip. Elev Updated Type
                   

Watches & Warnings

There are currently no watches in effect.